Mooresville, Texas
Current Conditions -  °F | °C
As of 6:55 AM on Thursday 23 Oct 2014 (Local Time) from KPWG Reporting Station
Broken Clouds Broken Clouds  
Wind Chill: 17°   Ceiling: 12000
Heat Index: 17°   Visibility: 10mi
Dew Point: 13°   Wind: 0mph
Humidity: 77%   Direction: NA
Pressure: 30.14"   Gusts: NA
Location:  31.2985°N, 97.112°W
Report Text: KPWG 231155Z AUTO 00000KT 10SM BKN120 17/13 A3014 RMK AO1 P0003 60003 70003 10200 20170 52010
Loading
Personal Weather Stations






























Interactive Weather Map
Tropical Storm Tracking
New forecast layout! Learn more

10-Day Weather Forecast

Advertisements
Track Severe Weather on mobile